Time;durP1;ratioP1;P1;durP2;ratioP2;P2;SDS_P1;SDS_P2;PMS_P1;PMS_P2;Temp;Humidity;BMP_temperature;BMP_pressure;BME280_temperature;BME280_humidity;BME280_pressure;Samples;Min_cycle;Max_cycle;Signal;HPM_P1;HPM_P2
2022/06/10 00:00:53;;;;;;;12.27;3.00;;;;;;;17.67;61.63;102056.34;4999612;28;20412;-58
2022/06/10 00:03:23;;;;;;;10.63;2.83;;;;;;;17.65;61.01;102052.81;4988830;28;20507;-58
2022/06/10 00:06:01;;;;;;;10.07;2.55;;;;;;;17.63;61.04;102053.66;4996147;28;21062;-59
2022/06/10 00:08:30;;;;;;;11.93;2.63;;;;;;;17.74;61.02;102055.50;4998510;28;20178;-59
2022/06/10 00:10:58;;;;;;;8.57;2.50;;;;;;;17.58;60.99;102053.63;5003848;28;20480;-57
2022/06/10 00:13:30;;;;;;;11.82;3.08;;;;;;;17.53;60.89;102046.59;5000707;28;20112;-58
2022/06/10 00:15:55;;;;;;;9.48;2.47;;;;;;;17.65;61.21;102044.91;4997385;28;20088;-58
2022/06/10 00:18:23;;;;;;;9.25;2.50;;;;;;;17.67;60.98;102053.72;4999448;28;20491;-58
2022/06/10 00:20:48;;;;;;;12.85;2.92;;;;;;;17.64;61.14;102045.78;4997221;28;20045;-57
2022/06/10 00:23:14;;;;;;;12.20;3.30;;;;;;;17.75;60.81;102041.41;4992776;28;20145;-59
2022/06/10 00:25:40;;;;;;;11.68;3.35;;;;;;;17.81;60.58;102038.78;4982359;28;20095;-57
2022/06/10 00:28:07;;;;;;;12.48;3.38;;;;;;;17.81;60.55;102036.13;4994025;28;20876;-59
2022/06/10 00:30:33;;;;;;;13.30;3.28;;;;;;;17.82;60.50;102037.91;4999351;28;20037;-58
2022/06/10 00:33:01;;;;;;;7.22;2.70;;;;;;;17.87;60.75;102039.69;4998203;28;20642;-57
2022/06/10 00:35:28;;;;;;;8.18;2.40;;;;;;;17.95;60.31;102035.28;4993721;28;20106;-58
2022/06/10 00:37:54;;;;;;;11.65;2.72;;;;;;;17.84;60.66;102040.56;4999431;28;20045;-58
2022/06/10 00:40:25;;;;;;;10.57;2.50;;;;;;;18.00;60.11;102044.09;4994868;28;20064;-59
2022/06/10 00:42:50;;;;;;;8.98;2.60;;;;;;;18.01;60.06;102041.47;4998071;28;20515;-57
2022/06/10 00:45:53;;;;;;;10.45;2.42;;;;;;;18.25;59.60;102038.84;4993358;28;20471;-57
2022/06/10 00:48:45;;;;;;;14.45;2.35;;;;;;;18.28;59.43;102039.72;4999543;28;20119;-58
2022/06/10 00:51:14;;;;;;;11.02;2.90;;;;;;;18.28;59.39;102050.28;5008676;28;20551;-59
2022/06/10 00:53:40;;;;;;;8.90;2.40;;;;;;;18.42;59.06;102038.81;4986061;28;20106;-57
2022/06/10 00:56:16;;;;;;;12.38;2.55;;;;;;;18.49;58.93;102043.22;4993393;28;20041;-57
2022/06/10 00:58:45;;;;;;;5.47;2.15;;;;;;;18.46;59.34;102037.97;4993985;28;20040;-58
2022/06/10 01:01:13;;;;;;;11.23;2.50;;;;;;;18.55;59.06;102048.53;4995679;28;20117;-58
2022/06/10 01:03:41;;;;;;;14.27;2.83;;;;;;;18.46;59.28;102047.66;4987216;28;20488;-58
2022/06/10 01:06:07;;;;;;;13.70;3.50;;;;;;;18.47;59.41;102047.66;5004002;28;20492;-60
2022/06/10 01:08:33;;;;;;;9.57;3.00;;;;;;;18.52;58.98;102040.59;5000747;28;20037;-58
2022/06/10 01:11:15;;;;;;;9.73;2.80;;;;;;;18.61;58.86;102043.25;5007899;28;20554;-58
2022/06/10 01:14:01;;;;;;;14.85;3.20;;;;;;;18.49;59.73;102039.72;4987997;28;20542;-58
2022/06/10 01:16:53;;;;;;;13.63;3.15;;;;;;;18.54;59.75;102040.59;4994505;28;20675;-59
2022/06/10 01:19:47;;;;;;;13.93;2.80;;;;;;;18.49;59.05;102039.72;4999695;28;20560;-56
2022/06/10 01:23:04;;;;;;;12.90;2.65;;;;;;;18.62;59.18;102044.13;5001228;28;20461;-58
2022/06/10 01:26:04;;;;;;;10.65;2.80;;;;;;;18.63;59.00;102044.13;4990758;28;20667;-59
2022/06/10 01:28:57;;;;;;;8.88;2.50;;;;;;;18.69;58.84;102043.25;5005133;28;20045;-59
2022/06/10 01:32:24;;;;;;;7.63;2.30;;;;;;;18.64;59.15;102042.38;4998500;28;20080;-57
2022/06/10 01:35:01;;;;;;;10.30;2.78;;;;;;;18.69;59.31;102043.25;4935804;28;20121;-59
2022/06/10 01:38:08;;;;;;;11.80;2.85;;;;;;;18.74;59.15;102045.88;4938147;28;20042;-57
2022/06/10 01:40:51;;;;;;;13.25;2.65;;;;;;;18.79;58.75;102038.81;4999677;28;20053;-59
2022/06/10 01:43:33;;;;;;;9.32;2.45;;;;;;;18.89;58.21;102045.88;4995544;28;20137;-58
2022/06/10 01:46:13;;;;;;;10.90;2.25;;;;;;;18.69;59.25;102048.53;5000326;28;20045;-58
2022/06/10 01:48:54;;;;;;;11.32;2.35;;;;;;;18.88;58.63;102046.75;5001302;28;20045;-57
2022/06/10 01:51:36;;;;;;;13.07;2.70;;;;;;;18.85;59.48;102046.72;4997374;28;20765;-59
2022/06/10 01:54:14;;;;;;;9.43;2.50;;;;;;;18.78;60.02;102048.53;5005934;28;20637;-57
2022/06/10 01:56:46;;;;;;;10.57;2.58;;;;;;;18.49;61.64;102045.88;4998065;28;20033;-57
2022/06/10 01:59:30;;;;;;;10.15;2.15;;;;;;;18.68;61.58;102048.53;5000801;28;20044;-58
2022/06/10 02:02:13;;;;;;;13.07;2.85;;;;;;;18.63;61.79;102041.50;5001165;28;20056;-58
2022/06/10 02:05:04;;;;;;;6.45;2.08;;;;;;;18.59;62.19;102045.03;4995905;28;20501;-57
2022/06/10 02:07:40;;;;;;;12.70;2.75;;;;;;;18.66;61.90;102050.31;4996378;28;20037;-57
2022/06/10 02:10:13;;;;;;;12.73;2.42;;;;;;;18.79;61.24;102050.28;5003799;28;20163;-59
2022/06/10 02:12:45;;;;;;;8.18;2.22;;;;;;;18.73;61.53;102046.75;4995057;28;20064;-57
2022/06/10 02:15:19;;;;;;;12.55;2.50;;;;;;;18.63;61.79;102043.25;4996959;28;20099;-60
2022/06/10 02:17:54;;;;;;;10.68;2.70;;;;;;;18.61;62.21;102042.38;4987630;28;20340;-58
2022/06/10 02:20:24;;;;;;;8.93;2.63;;;;;;;18.63;62.12;102041.50;5007349;28;20466;-59
2022/06/10 02:22:52;;;;;;;11.20;2.80;;;;;;;18.50;61.96;102046.75;4997644;28;20037;-58
2022/06/10 02:25:32;;;;;;;9.55;2.40;;;;;;;18.71;61.75;102051.19;4996832;28;20030;-57
2022/06/10 02:28:03;;;;;;;8.02;2.35;;;;;;;18.73;61.38;102052.03;5010847;28;20478;-58
2022/06/10 02:30:35;;;;;;;9.23;2.40;;;;;;;18.82;61.20;102050.28;4999612;28;20510;-57
2022/06/10 02:33:02;;;;;;;7.65;2.45;;;;;;;18.81;61.59;102050.28;4996212;28;20045;-58
2022/06/10 02:35:35;;;;;;;12.35;3.05;;;;;;;18.56;61.70;102050.31;4992836;28;21245;-56
2022/06/10 02:38:06;;;;;;;9.35;2.40;;;;;;;18.67;61.26;102044.13;5000341;28;20469;-57
2022/06/10 02:40:57;;;;;;;8.38;2.38;;;;;;;18.69;60.78;102051.19;4999191;28;20048;-57
2022/06/10 02:44:01;;;;;;;9.98;2.75;;;;;;;18.63;61.51;102052.06;5000531;28;20051;-57
2022/06/10 02:46:33;;;;;;;8.55;2.55;;;;;;;18.79;61.33;102054.66;5011893;28;20052;-56
2022/06/10 02:49:06;;;;;;;7.97;2.67;;;;;;;18.87;60.73;102053.78;4997385;28;20132;-56
2022/06/10 02:51:32;;;;;;;11.38;2.47;;;;;;;18.95;60.27;102059.94;4979673;28;20041;-55
2022/06/10 02:53:59;;;;;;;10.13;2.30;;;;;;;18.97;60.46;102055.50;5000959;28;20033;-56
2022/06/10 02:56:26;;;;;;;9.02;2.33;;;;;;;19.04;60.34;102059.91;5005602;28;20064;-57
2022/06/10 03:02:16;;;;;;;10.25;2.70;;;;;;;18.97;61.88;102059.91;4985757;28;20774;-56
2022/06/10 03:05:01;;;;;;;12.13;2.88;;;;;;;18.84;62.00;102063.50;5000471;28;20454;-57
2022/06/10 03:08:01;;;;;;;13.70;2.80;;;;;;;18.80;62.11;102067.00;4994176;28;20516;-56
2022/06/10 03:11:01;;;;;;;11.18;2.50;;;;;;;18.59;63.15;102062.66;4995022;28;20103;-57
2022/06/10 03:14:05;;;;;;;10.77;2.50;;;;;;;18.44;63.39;102065.25;5000120;28;20044;-56
2022/06/10 03:16:49;;;;;;;12.02;2.72;;;;;;;18.71;62.49;102069.69;4997513;28;21416;-58
2022/06/10 03:19:41;;;;;;;9.70;2.30;;;;;;;18.79;62.42;102073.16;5002912;28;20051;-58
2022/06/10 03:22:21;;;;;;;14.40;2.60;;;;;;;18.55;64.34;102074.06;4997479;28;20049;-57
2022/06/10 03:25:02;;;;;;;8.52;2.60;;;;;;;18.46;65.61;102071.41;4999095;28;20504;-58
2022/06/10 03:27:46;;;;;;;10.70;2.30;;;;;;;18.44;66.07;102078.44;4995370;28;20049;-56
2022/06/10 03:30:17;;;;;;;9.82;2.38;;;;;;;18.44;65.92;102086.38;4995023;28;20053;-57
2022/06/10 03:32:52;;;;;;;8.85;2.30;;;;;;;18.37;66.71;102081.97;4999881;28;20049;-58
2022/06/10 03:35:25;;;;;;;8.57;2.45;;;;;;;18.30;67.75;102072.31;4994384;28;20374;-58
2022/06/10 03:37:51;;;;;;;9.63;3.03;;;;;;;18.28;68.17;102080.22;4991840;28;20083;-58
2022/06/10 03:40:22;;;;;;;10.20;2.72;;;;;;;18.09;68.80;102084.59;5001207;28;20574;-57
2022/06/10 03:42:51;;;;;;;9.45;2.60;;;;;;;18.17;68.83;102084.59;4995474;28;20041;-57
2022/06/10 03:45:19;;;;;;;8.65;2.22;;;;;;;18.15;69.07;102075.78;4991726;28;20535;-55
2022/06/10 03:47:44;;;;;;;7.95;2.72;;;;;;;18.05;69.46;102081.94;4991181;28;20404;-57
2022/06/10 03:50:16;;;;;;;8.80;2.55;;;;;;;18.06;69.77;102087.19;4999626;28;20456;-57
2022/06/10 03:52:44;;;;;;;9.02;2.33;;;;;;;18.21;69.49;102084.59;5001785;28;20045;-57
2022/06/10 03:55:14;;;;;;;9.05;2.30;;;;;;;18.34;69.34;102084.63;4996058;28;20049;-57
2022/06/10 03:57:41;;;;;;;10.40;2.30;;;;;;;18.35;69.20;102076.69;4988795;28;20466;-58
2022/06/10 04:00:13;;;;;;;7.40;2.40;;;;;;;18.17;69.71;102077.56;5016641;28;20041;-57
2022/06/10 04:02:39;;;;;;;10.68;2.33;;;;;;;18.20;69.70;102080.19;4996314;28;20515;-58
2022/06/10 04:05:05;;;;;;;7.00;2.05;;;;;;;18.22;69.97;102085.47;4990141;28;20447;-57
2022/06/10 04:07:30;;;;;;;8.65;2.40;;;;;;;18.04;70.71;102085.47;4986563;28;20416;-57
2022/06/10 04:09:55;;;;;;;8.88;2.70;;;;;;;18.00;70.70;102081.03;4991990;28;20068;-60
2022/06/10 04:12:21;;;;;;;10.02;2.40;;;;;;;17.77;71.23;102081.88;4996047;28;20512;-57
2022/06/10 04:14:48;;;;;;;8.98;2.50;;;;;;;17.87;71.38;102072.19;5008142;28;20048;-58
2022/06/10 04:17:13;;;;;;;8.85;2.70;;;;;;;17.99;70.99;102074.88;5001453;28;20052;-58
2022/06/10 04:19:39;;;;;;;10.73;2.72;;;;;;;18.02;70.86;102074.88;4986187;28;20044;-57
2022/06/10 04:22:05;;;;;;;10.82;2.42;;;;;;;18.01;71.07;102078.41;4999789;28;20021;-57
2022/06/10 04:24:30;;;;;;;11.10;2.97;;;;;;;18.12;70.60;102081.06;5004990;28;20033;-57
2022/06/10 04:26:56;;;;;;;9.13;2.78;;;;;;;18.21;70.84;102083.72;4997195;28;20421;-59
2022/06/10 04:29:21;;;;;;;8.88;2.33;;;;;;;18.33;70.81;102082.84;4987918;28;20045;-57
2022/06/10 04:31:47;;;;;;;9.25;2.60;;;;;;;18.39;70.54;102083.72;4993052;28;20067;-58
2022/06/10 04:34:13;;;;;;;7.78;2.80;;;;;;;18.15;71.19;102087.22;4998352;28;20041;-59
2022/06/10 04:36:39;;;;;;;6.05;2.45;;;;;;;18.37;70.76;102085.47;4995955;28;20318;-56
2022/06/10 04:39:05;;;;;;;8.15;2.70;;;;;;;18.43;70.70;102085.47;4988964;28;20171;-58
2022/06/10 04:41:31;;;;;;;7.38;2.50;;;;;;;18.56;70.38;102084.63;4999511;28;20131;-56
2022/06/10 04:43:56;;;;;;;13.45;2.70;;;;;;;18.68;70.20;102089.03;4991075;28;20125;-56
2022/06/10 04:46:30;;;;;;;7.82;2.47;;;;;;;18.63;70.18;102091.69;4999904;28;20053;-59
2022/06/10 04:48:55;;;;;;;6.47;2.67;;;;;;;18.74;69.47;102078.47;4991742;28;20554;-58
2022/06/10 04:51:21;;;;;;;10.43;2.78;;;;;;;18.69;69.57;102076.72;4999974;28;20315;-58
2022/06/10 04:53:47;;;;;;;8.85;2.53;;;;;;;18.79;69.39;102076.69;4989335;28;20234;-58
2022/06/10 04:56:13;;;;;;;11.10;2.60;;;;;;;18.78;69.42;102079.34;5000877;28;20044;-57
2022/06/10 04:58:39;;;;;;;7.57;2.53;;;;;;;18.89;69.19;102080.22;4991468;28;20037;-57
2022/06/10 05:01:05;;;;;;;9.77;2.35;;;;;;;18.73;68.86;102074.06;4987596;28;20049;-58
2022/06/10 05:03:30;;;;;;;10.88;3.00;;;;;;;18.80;68.47;102075.81;4991142;28;20779;-59
2022/06/10 05:05:56;;;;;;;7.95;2.53;;;;;;;18.95;68.26;102073.16;4988931;28;20496;-58
2022/06/10 05:08:21;;;;;;;10.35;2.88;;;;;;;18.97;67.70;102075.78;4991666;28;20073;-57
2022/06/10 05:10:47;;;;;;;10.27;2.95;;;;;;;18.80;68.20;102075.81;5004156;28;20041;-58
2022/06/10 05:13:16;;;;;;;10.30;3.17;;;;;;;18.74;67.84;102070.53;5001246;28;20036;-56
2022/06/10 05:15:42;;;;;;;10.30;3.42;;;;;;;18.90;67.08;102068.78;4992818;28;20675;-57
2022/06/10 05:18:08;;;;;;;9.77;2.60;;;;;;;18.80;66.57;102073.16;4998719;28;20120;-58
2022/06/10 05:20:40;;;;;;;10.50;2.70;;;;;;;18.93;66.73;102082.84;4992791;28;20056;-57
2022/06/10 05:23:07;;;;;;;9.10;2.80;;;;;;;19.05;66.33;102074.88;4995256;28;20164;-57
2022/06/10 05:25:33;;;;;;;10.65;2.50;;;;;;;19.13;65.70;102081.94;4981806;28;20041;-57
2022/06/10 05:27:59;;;;;;;8.63;2.55;;;;;;;18.91;65.55;102076.66;4995891;28;20071;-58
2022/06/10 05:30:30;;;;;;;10.25;2.72;;;;;;;18.77;65.52;102077.59;4998090;28;20037;-59
2022/06/10 05:32:56;;;;;;;9.80;2.80;;;;;;;19.14;65.31;102081.94;4999899;28;20326;-58
2022/06/10 05:35:22;;;;;;;9.82;2.92;;;;;;;19.07;65.42;102079.28;4991824;28;20041;-58
2022/06/10 05:37:48;;;;;;;10.63;3.00;;;;;;;19.04;65.44;102082.81;4980913;28;20325;-57
2022/06/10 05:40:14;;;;;;;11.93;2.70;;;;;;;19.26;65.36;102079.25;4996131;28;20033;-57
2022/06/10 05:42:40;;;;;;;7.80;3.00;;;;;;;19.18;65.33;102074.84;5003312;28;20533;-58
2022/06/10 05:45:07;;;;;;;10.38;2.80;;;;;;;19.24;65.34;102078.34;4998487;28;20128;-58
2022/06/10 05:47:34;;;;;;;10.48;2.90;;;;;;;19.33;65.07;102077.47;4985057;28;20068;-59
2022/06/10 05:50:04;;;;;;;10.15;2.70;;;;;;;19.25;64.46;102076.59;4996523;28;20622;-60
2022/06/10 05:52:30;;;;;;;15.18;3.30;;;;;;;19.10;63.84;102080.16;4996618;28;20060;-58
2022/06/10 05:55:00;;;;;;;19.42;3.25;;;;;;;19.25;64.23;102090.69;4993976;28;20067;-58
2022/06/10 05:57:27;;;;;;;9.65;2.83;;;;;;;19.16;64.01;102085.44;4989072;28;20107;-56
2022/06/10 05:59:53;;;;;;;11.98;3.15;;;;;;;19.29;63.56;102086.28;5000543;28;20039;-58
2022/06/10 06:02:21;;;;;;;11.32;3.10;;;;;;;19.23;63.90;102086.28;4991722;28;20389;-58
2022/06/10 06:04:47;;;;;;;9.50;2.92;;;;;;;19.39;63.70;102091.50;5001582;28;20084;-58
2022/06/10 06:07:19;;;;;;;7.47;2.80;;;;;;;19.38;63.71;102089.78;4995599;28;20041;-57
2022/06/10 06:09:45;;;;;;;12.98;3.10;;;;;;;19.41;63.15;102096.81;4980968;28;20588;-58
2022/06/10 06:12:13;;;;;;;13.77;3.13;;;;;;;19.40;62.80;102095.03;4993150;28;20034;-56
2022/06/10 06:14:39;;;;;;;12.10;2.80;;;;;;;19.62;62.74;102103.81;4997481;28;20037;-58
2022/06/10 06:17:06;;;;;;;8.30;2.80;;;;;;;19.68;62.11;102103.78;5001577;28;20365;-57
2022/06/10 06:19:32;;;;;;;7.50;2.28;;;;;;;19.88;62.95;102111.66;4994585;28;20111;-57
2022/06/10 06:21:59;;;;;;;9.75;2.67;;;;;;;19.59;63.23;102107.34;5000061;28;20514;-59
2022/06/10 06:24:25;;;;;;;12.55;3.13;;;;;;;19.26;64.36;102110.97;4993759;28;20052;-58
2022/06/10 06:26:51;;;;;;;11.35;2.85;;;;;;;19.51;64.51;102113.56;5002100;28;20145;-57
2022/06/10 06:29:17;;;;;;;12.23;2.92;;;;;;;19.25;66.16;102110.97;4994387;28;20034;-57
2022/06/10 06:31:42;;;;;;;7.45;2.50;;;;;;;19.73;65.57;102118.75;4988552;28;20060;-58
2022/06/10 06:34:07;;;;;;;11.07;2.70;;;;;;;19.68;65.59;102117.03;5005342;28;20045;-61
2022/06/10 06:36:45;;;;;;;8.80;2.55;;;;;;;20.07;65.74;102127.38;4993341;28;20041;-60
2022/06/10 06:39:14;;;;;;;7.60;2.33;;;;;;;20.35;65.29;102119.31;4995917;28;20522;-57
2022/06/10 06:41:39;;;;;;;9.30;2.88;;;;;;;20.50;64.43;102120.06;4984539;28;20037;-56
2022/06/10 06:44:07;;;;;;;11.10;2.70;;;;;;;20.37;64.11;102120.19;4993964;28;20428;-59
2022/06/10 06:46:34;;;;;;;8.70;2.55;;;;;;;20.70;63.10;102116.38;4995370;28;20314;-58
2022/06/10 06:49:02;;;;;;;9.90;2.80;;;;;;;20.69;62.63;102123.44;4994307;28;20055;-58
2022/06/10 06:51:28;;;;;;;9.52;3.13;;;;;;;21.02;61.88;102117.84;4993133;28;20708;-56
2022/06/10 06:53:54;;;;;;;12.85;2.78;;;;;;;21.34;60.70;102117.53;4993163;28;20592;-58
2022/06/10 06:56:19;;;;;;;12.32;2.78;;;;;;;21.92;58.66;102118.56;5000190;28;20122;-57
2022/06/10 06:58:45;;;;;;;11.05;2.80;;;;;;;22.03;57.74;102116.66;4996331;28;20052;-58
2022/06/10 07:01:10;;;;;;;10.35;2.97;;;;;;;22.13;58.11;102113.00;4996931;28;20447;-58
2022/06/10 07:03:36;;;;;;;9.20;2.75;;;;;;;22.12;57.19;102120.09;4988316;28;20496;-58
2022/06/10 07:06:01;;;;;;;10.38;2.78;;;;;;;22.32;56.29;102113.59;4995194;28;20622;-57
2022/06/10 07:08:31;;;;;;;9.75;2.63;;;;;;;22.23;56.51;102114.59;4999627;28;20123;-58
2022/06/10 07:11:01;;;;;;;10.70;2.88;;;;;;;22.01;57.18;102127.34;4987184;28;20049;-57
2022/06/10 07:13:27;;;;;;;10.07;2.90;;;;;;;22.37;56.73;102125.03;4991573;28;20068;-58
2022/06/10 07:15:57;;;;;;;10.98;2.90;;;;;;;22.39;56.15;102120.56;4989393;28;20049;-58
2022/06/10 07:18:23;;;;;;;13.27;2.78;;;;;;;22.30;55.74;102123.38;5001216;28;20172;-57
2022/06/10 07:20:49;;;;;;;12.00;2.97;;;;;;;22.56;54.81;102124.72;4994471;28;20495;-59
2022/06/10 07:23:16;;;;;;;7.03;2.30;;;;;;;22.74;54.52;102120.03;4995356;28;20103;-57
2022/06/10 07:25:42;;;;;;;11.07;2.67;;;;;;;22.64;54.30;102127.22;4993673;28;20124;-57
2022/06/10 07:28:14;;;;;;;9.55;2.60;;;;;;;22.15;54.43;102133.31;5003526;28;20045;-58
2022/06/10 07:30:40;;;;;;;9.02;2.50;;;;;;;22.48;54.93;102125.72;4997393;28;20146;-58
2022/06/10 07:33:06;;;;;;;9.77;2.70;;;;;;;22.43;55.48;102127.59;4996676;28;20353;-58
2022/06/10 07:35:32;;;;;;;12.80;2.72;;;;;;;22.92;52.71;102125.03;4986565;28;20033;-58
2022/06/10 07:37:59;;;;;;;11.23;2.78;;;;;;;22.94;53.80;102126.72;4982976;28;20040;-58
2022/06/10 07:43:26;;;;;;;10.43;2.75;;;;;;;23.48;51.80;102129.31;4974418;28;20868;-58
2022/06/10 07:45:52;;;;;;;13.70;2.90;;;;;;;23.30;51.99;102137.59;4998385;28;20399;-58
2022/06/10 07:48:18;;;;;;;10.48;2.65;;;;;;;23.26;52.05;102133.25;4997987;28;20411;-57
2022/06/10 07:50:46;;;;;;;14.50;3.10;;;;;;;23.23;51.27;102123.56;4996245;28;20710;-57
2022/06/10 07:53:12;;;;;;;13.27;3.00;;;;;;;23.57;51.02;102126.44;4998994;28;20104;-59
2022/06/10 07:55:38;;;;;;;11.88;2.80;;;;;;;23.39;51.62;102130.31;4991320;28;20459;-59
2022/06/10 07:58:04;;;;;;;12.23;2.83;;;;;;;23.40;51.96;102124.09;4996248;28;20063;-57
2022/06/10 08:00:30;;;;;;;12.57;2.92;;;;;;;22.95;52.66;102132.94;5004669;28;20426;-57
2022/06/10 08:02:57;;;;;;;9.65;2.50;;;;;;;23.24;51.92;102129.72;5003876;28;20484;-58
2022/06/10 08:05:23;;;;;;;12.18;3.38;;;;;;;22.95;52.72;102132.94;4987667;28;20593;-60
2022/06/10 08:07:50;;;;;;;9.80;3.25;;;;;;;22.55;53.46;102133.59;4990182;28;22338;-56
2022/06/10 08:10:19;;;;;;;10.88;3.00;;;;;;;23.01;52.91;102135.47;5007207;28;20506;-57
2022/06/10 08:12:45;;;;;;;9.65;2.80;;;;;;;22.31;54.32;102139.28;4997964;28;20048;-59
2022/06/10 08:15:12;;;;;;;13.00;3.10;;;;;;;22.55;54.13;102135.38;4995991;28;20881;-58
2022/06/10 08:17:37;;;;;;;11.25;2.78;;;;;;;22.50;54.55;102132.78;4983796;28;20485;-58
2022/06/10 08:20:03;;;;;;;10.90;3.13;;;;;;;22.31;54.27;102138.41;4994944;28;20423;-59
2022/06/10 08:22:35;;;;;;;7.38;3.10;;;;;;;22.27;54.24;102134.91;4995459;28;20977;-56
2022/06/10 08:25:04;;;;;;;10.55;3.53;;;;;;;22.70;53.42;102135.09;5003513;28;20358;-56
2022/06/10 08:27:29;;;;;;;13.02;3.50;;;;;;;22.41;53.91;102137.34;4992149;28;20120;-55
2022/06/10 08:29:56;;;;;;;13.95;3.90;;;;;;;22.32;54.27;102132.19;5005080;28;20037;-58
2022/06/10 08:32:23;;;;;;;11.18;3.08;;;;;;;23.20;53.29;102136.91;4980038;28;20286;-57
2022/06/10 08:34:48;;;;;;;9.40;3.50;;;;;;;23.57;52.12;102146.84;4999514;28;20612;-58
2022/06/10 08:37:14;;;;;;;11.75;3.72;;;;;;;23.92;51.55;102138.13;4966442;28;21203;-58
2022/06/10 08:39:39;;;;;;;10.15;3.30;;;;;;;23.28;52.39;102147.41;4979419;28;20308;-59
2022/06/10 08:42:20;;;;;;;11.70;3.40;;;;;;;23.29;51.97;102127.88;4992616;28;20041;-58
2022/06/10 08:44:53;;;;;;;14.25;3.55;;;;;;;23.37;51.72;102129.47;4992267;28;20056;-57
2022/06/10 08:47:31;;;;;;;14.40;3.63;;;;;;;23.67;51.46;102125.34;4998034;28;20122;-57
2022/06/10 08:50:12;;;;;;;10.73;3.42;;;;;;;24.66;50.00;102133.72;5002328;28;20608;-58
2022/06/10 08:52:59;;;;;;;10.65;3.53;;;;;;;25.34;48.27;102126.59;4997912;28;20036;-58
2022/06/10 08:55:42;;;;;;;13.32;3.50;;;;;;;25.29;48.30;102130.31;5002088;28;20901;-58
2022/06/10 08:58:17;;;;;;;12.00;3.88;;;;;;;24.98;47.16;102133.81;4999784;28;20045;-58
2022/06/10 09:00:44;;;;;;;9.63;3.03;;;;;;;26.00;47.38;102135.38;4999760;28;21292;-60
2022/06/10 09:03:28;;;;;;;8.85;3.00;;;;;;;25.75;45.94;102137.91;4996069;28;20120;-58
2022/06/10 09:05:58;;;;;;;8.32;2.85;;;;;;;24.92;47.34;102135.78;4994654;28;20052;-58
2022/06/10 09:08:49;;;;;;;9.23;2.67;;;;;;;25.42;47.06;102129.94;4997604;28;20075;-57
2022/06/10 09:11:26;;;;;;;8.77;3.20;;;;;;;25.51;45.39;102138.59;4997310;28;20660;-58
2022/06/10 09:14:02;;;;;;;9.90;2.63;;;;;;;26.03;45.16;102135.28;4997061;28;20386;-57
2022/06/10 09:16:35;;;;;;;8.77;2.83;;;;;;;26.44;46.57;102128.66;5000091;28;20492;-57
2022/06/10 09:19:17;;;;;;;7.78;2.95;;;;;;;26.18;44.79;102134.81;4996789;28;20632;-58
2022/06/10 09:21:49;;;;;;;8.65;2.83;;;;;;;26.47;44.65;102136.59;4978485;28;20602;-57
2022/06/10 09:24:24;;;;;;;8.05;2.80;;;;;;;26.32;45.30;102129.94;4994942;28;21355;-56
2022/06/10 09:27:06;;;;;;;7.82;2.78;;;;;;;25.74;45.94;102133.47;5007577;28;20127;-58
2022/06/10 09:29:32;;;;;;;11.35;2.90;;;;;;;25.74;45.62;102137.03;4991748;28;20068;-58
2022/06/10 09:32:10;;;;;;;7.88;3.22;;;;;;;25.88;46.23;102135.75;4996876;28;20100;-58
2022/06/10 09:34:36;;;;;;;7.15;2.78;;;;;;;25.55;46.28;102138.47;5000707;28;20393;-57
2022/06/10 09:37:14;;;;;;;7.35;2.40;;;;;;;25.59;46.37;102126.81;5006650;28;20045;-57
2022/06/10 09:42:38;;;;;;;6.88;2.47;;;;;;;25.70;47.67;102131.84;4995176;28;20062;-56
2022/06/10 09:45:10;;;;;;;7.65;2.40;;;;;;;25.15;46.81;102138.69;4987409;28;20420;-59
2022/06/10 09:47:56;;;;;;;8.43;2.47;;;;;;;24.98;47.23;102128.50;4999066;28;20037;-59
2022/06/10 09:50:50;;;;;;;7.88;2.28;;;;;;;25.02;46.90;102131.94;5000185;28;20285;-58
2022/06/10 09:53:27;;;;;;;4.47;1.73;;;;;;;26.18;44.40;102122.31;4991204;28;20056;-59
2022/06/10 09:55:53;;;;;;;6.65;1.80;;;;;;;26.36;43.53;102130.69;4993389;28;20124;-57
2022/06/10 09:58:41;;;;;;;4.22;1.55;;;;;;;26.52;43.78;102124.81;5006443;28;20133;-58
2022/06/10 10:01:28;;;;;;;7.13;1.77;;;;;;;26.84;42.31;102126.38;4991607;28;20056;-59
2022/06/10 10:04:27;;;;;;;4.00;1.52;;;;;;;26.46;42.63;102142.88;4988505;28;20448;-58
2022/06/10 10:06:57;;;;;;;6.38;1.80;;;;;;;25.93;43.80;102139.16;4998434;28;20503;-58
2022/06/10 10:09:41;;;;;;;7.28;1.80;;;;;;;25.70;45.46;102147.84;5004508;28;20059;-58
2022/06/10 10:12:12;;;;;;;3.47;1.70;;;;;;;25.28;45.33;102152.59;5003864;28;20111;-58
2022/06/10 10:15:05;;;;;;;5.93;1.80;;;;;;;24.91;45.56;102156.25;5009162;28;20518;-58
2022/06/10 10:17:52;;;;;;;5.63;1.77;;;;;;;24.98;45.90;102156.97;5000908;28;21197;-58
2022/06/10 10:20:46;;;;;;;5.03;1.50;;;;;;;25.49;45.60;102159.13;5010605;28;20053;-58
2022/06/10 10:23:25;;;;;;;4.55;1.67;;;;;;;25.99;44.19;102157.66;5009811;28;20052;-59
2022/06/10 10:25:51;;;;;;;4.57;1.67;;;;;;;26.04;44.46;102161.09;5003101;28;20558;-58
2022/06/10 10:28:25;;;;;;;3.60;1.40;;;;;;;26.54;43.85;102147.00;5010893;28;20052;-57
2022/06/10 10:31:01;;;;;;;4.82;1.70;;;;;;;26.72;43.24;102160.69;5004748;28;20516;-58
2022/06/10 10:33:28;;;;;;;6.85;1.90;;;;;;;26.69;43.94;102148.31;5010139;28;20531;-57
2022/06/10 10:35:56;;;;;;;5.18;1.90;;;;;;;26.89;42.12;102151.25;5003956;28;20051;-58
2022/06/10 10:38:31;;;;;;;7.50;2.05;;;;;;;27.20;41.76;102158.19;5005311;28;20593;-58
2022/06/10 10:40:58;;;;;;;8.60;2.20;;;;;;;27.01;41.82;102155.28;5007883;28;20956;-58
2022/06/10 10:43:30;;;;;;;6.93;1.98;;;;;;;26.76;41.57;102157.91;5011137;28;20045;-57
2022/06/10 10:46:03;;;;;;;7.10;1.98;;;;;;;26.06;42.60;102161.91;5007490;28;20186;-58
2022/06/10 10:48:32;;;;;;;6.17;2.00;;;;;;;26.32;43.27;102159.34;5007726;28;20069;-57
2022/06/10 10:51:20;;;;;;;6.30;1.75;;;;;;;26.25;45.00;102164.00;5000751;28;20044;-58
2022/06/10 10:53:54;;;;;;;5.93;2.10;;;;;;;26.20;43.33;102173.06;4999542;28;20033;-57
2022/06/10 10:56:27;;;;;;;;;;;;;;;26.07;42.94;102163.66;5013215;28;20127;-58
2022/06/10 10:58:54;;;;;;;6.43;2.03;;;;;;;25.86;45.51;102163.38;5009041;28;19920;-57
2022/06/10 11:01:44;;;;;;;8.73;2.15;;;;;;;26.45;43.21;102152.69;4999761;28;20476;-58
2022/06/10 11:04:36;;;;;;;6.90;1.90;;;;;;;26.54;42.78;102149.69;5005562;28;20106;-57
2022/06/10 11:07:05;;;;;;;6.95;2.20;;;;;;;26.30;40.97;102150.47;5001681;28;20064;-58
2022/06/10 11:09:32;;;;;;;5.90;1.95;;;;;;;25.88;42.04;102151.78;4993641;28;20120;-58
2022/06/10 11:12:03;;;;;;;5.70;1.92;;;;;;;25.64;42.92;102148.03;5009676;28;20045;-58
2022/06/10 11:14:37;;;;;;;7.53;2.00;;;;;;;26.00;43.42;102157.63;5005950;28;20250;-60
2022/06/10 11:17:05;;;;;;;5.55;1.80;;;;;;;26.19;41.54;102149.91;5016172;28;20455;-57
2022/06/10 11:19:33;;;;;;;5.55;1.92;;;;;;;26.52;41.08;102159.59;4999541;28;20465;-57
2022/06/10 11:22:01;;;;;;;5.00;1.80;;;;;;;27.03;41.20;102159.66;5007033;28;20575;-57
2022/06/10 11:24:32;;;;;;;10.05;1.98;;;;;;;26.53;40.23;102152.44;5004811;28;20622;-57
2022/06/10 11:27:02;;;;;;;7.78;2.00;;;;;;;26.71;40.66;102150.97;5008153;28;20036;-57
2022/06/10 11:29:29;;;;;;;5.60;1.90;;;;;;;27.09;39.63;102152.31;5003476;28;20045;-57
2022/06/10 11:32:02;;;;;;;4.28;1.60;;;;;;;26.58;40.54;102151.38;5000315;28;20201;-59
2022/06/10 11:34:39;;;;;;;7.28;1.77;;;;;;;26.67;40.74;102155.50;5007742;28;20052;-59
2022/06/10 11:37:28;;;;;;;4.32;1.40;;;;;;;27.35;39.56;102145.13;5007420;28;20033;-59
2022/06/10 11:40:01;;;;;;;6.38;1.63;;;;;;;27.28;39.45;102146.25;5010868;28;20456;-58
2022/06/10 11:42:36;;;;;;;5.85;1.90;;;;;;;27.65;38.99;102142.28;5002170;28;20072;-58
2022/06/10 11:45:17;;;;;;;6.38;1.92;;;;;;;27.10;39.86;102151.41;4993639;28;20040;-57
2022/06/10 11:48:07;;;;;;;5.68;1.92;;;;;;;27.41;39.51;102152.94;4994461;28;20072;-58
2022/06/10 11:50:57;;;;;;;6.15;1.88;;;;;;;27.13;40.28;102151.31;5000776;28;20187;-58
2022/06/10 11:54:03;;;;;;;5.20;1.90;;;;;;;27.16;39.24;102153.88;4999110;28;20432;-55
2022/06/10 11:59:56;;;;;;;6.10;1.80;;;;;;;26.93;39.05;102149.31;4990524;28;20039;-59